Time;durP1;ratioP1;P1;durP2;ratioP2;P2;SDS_P1;SDS_P2;PMS_P1;PMS_P2;Temp;Humidity;BMP_temperature;BMP_pressure;BME280_temperature;BME280_humidity;BME280_pressure;Samples;Min_cycle;Max_cycle;Signal;HPM_P1;HPM_P2
2021/08/26 00:06:56;;;;;;;13.75;5.65;;;;;;;14.24;60.74;99644.88;4480583;31;33756;-82
2021/08/26 00:09:24;;;;;;;11.12;5.37;;;;;;;14.20;60.97;99635.41;4472208;31;34094;-82
2021/08/26 00:11:54;;;;;;;9.82;5.78;;;;;;;14.13;61.21;99636.72;4472975;31;34980;-82
2021/08/26 00:14:24;;;;;;;10.50;5.90;;;;;;;14.06;61.53;99637.09;4486135;31;33811;-82
2021/08/26 00:16:52;;;;;;;8.70;4.68;;;;;;;13.95;62.39;99636.88;4472084;31;32365;-82
2021/08/26 00:19:20;;;;;;;13.02;5.20;;;;;;;13.94;62.18;99632.53;4470940;31;33129;-83
2021/08/26 00:21:48;;;;;;;10.48;4.93;;;;;;;13.75;62.51;99630.13;4486561;31;33374;-83
2021/08/26 00:24:15;;;;;;;8.63;4.93;;;;;;;13.96;61.71;99620.03;4472172;31;32886;-83
2021/08/26 00:26:43;;;;;;;10.90;5.40;;;;;;;13.97;61.74;99626.19;4484941;31;34026;-83
2021/08/26 00:29:10;;;;;;;8.90;4.62;;;;;;;14.13;60.81;99618.13;4486500;31;33676;-83
2021/08/26 00:31:38;;;;;;;9.25;4.12;;;;;;;14.00;61.25;99616.22;4489078;31;33019;-83
2021/08/26 00:34:06;;;;;;;12.20;5.30;;;;;;;14.03;61.02;99607.22;4471999;32;33925;-83
2021/08/26 00:36:34;;;;;;;12.30;6.28;;;;;;;13.91;61.44;99616.81;4470785;31;33734;-83
2021/08/26 00:39:04;;;;;;;7.68;5.00;;;;;;;13.75;62.23;99606.25;4470234;31;33764;-82
2021/08/26 00:41:31;;;;;;;10.77;5.57;;;;;;;13.57;63.02;99608.19;4483324;31;33193;-83
2021/08/26 00:44:00;;;;;;;12.90;5.72;;;;;;;13.49;63.10;99610.44;4463779;31;33521;-82
2021/08/26 00:46:28;;;;;;;11.38;5.50;;;;;;;13.52;63.03;99610.25;4462744;31;33695;-82
2021/08/26 00:48:56;;;;;;;11.07;4.93;;;;;;;13.75;61.70;99605.37;4454191;31;32843;-82
2021/08/26 00:51:23;;;;;;;10.02;4.95;;;;;;;13.53;62.65;99604.03;4464087;31;33758;-83
2021/08/26 00:53:53;;;;;;;9.25;4.47;;;;;;;13.73;61.89;99596.69;4479068;31;33711;-83
2021/08/26 00:56:20;;;;;;;10.25;4.90;;;;;;;13.63;62.34;99598.19;4469345;31;33954;-82
2021/08/26 00:58:49;;;;;;;9.50;5.03;;;;;;;13.53;62.60;99601.38;4485818;31;34525;-82
2021/08/26 01:01:29;;;;;;;9.38;4.80;;;;;;;13.53;62.74;99590.75;4464947;31;33393;-82
2021/08/26 01:04:33;;;;;;;11.80;5.32;;;;;;;13.64;62.21;99595.41;4473321;31;33740;-82
2021/08/26 01:07:07;;;;;;;13.43;4.55;;;;;;;13.55;62.35;99588.84;4491038;31;33891;-82
2021/08/26 01:09:47;;;;;;;8.45;4.15;;;;;;;13.35;62.84;99591.84;4491480;31;34380;-82
2021/08/26 01:12:19;;;;;;;8.50;4.47;;;;;;;13.63;61.97;99591.06;4485567;31;33874;-81
2021/08/26 01:14:47;;;;;;;10.07;5.03;;;;;;;13.70;61.65;99588.87;4474136;31;34505;-82
2021/08/26 01:17:25;;;;;;;9.07;4.90;;;;;;;13.55;61.86;99588.00;4488028;31;34071;-82
2021/08/26 01:19:57;;;;;;;8.50;4.37;;;;;;;13.64;61.65;99586.62;4488923;31;34774;-82
2021/08/26 01:22:36;;;;;;;8.18;3.95;;;;;;;13.50;61.98;99585.62;4469193;31;33099;-81
2021/08/26 01:25:06;;;;;;;9.02;4.70;;;;;;;13.38;62.46;99602.25;4480533;31;34111;-82
2021/08/26 01:27:49;;;;;;;9.15;4.87;;;;;;;13.53;61.97;99585.44;4479143;31;33310;-82
2021/08/26 01:30:25;;;;;;;12.15;5.72;;;;;;;13.55;62.08;99595.97;4465130;31;34269;-82
2021/08/26 01:32:54;;;;;;;9.70;4.90;;;;;;;13.40;62.25;99587.13;4495091;31;34572;-82
2021/08/26 01:35:23;;;;;;;7.50;4.43;;;;;;;13.65;61.57;99589.16;4492860;31;34472;-81
2021/08/26 01:37:52;;;;;;;9.30;4.85;;;;;;;13.38;62.25;99588.13;4494301;31;34948;-82
2021/08/26 01:40:40;;;;;;;10.63;4.90;;;;;;;13.45;62.30;99577.09;4468404;31;33513;-82
2021/08/26 01:43:12;;;;;;;7.85;4.35;;;;;;;13.43;62.45;99581.59;4467966;31;34066;-82
2021/08/26 01:45:43;;;;;;;10.32;5.00;;;;;;;13.31;62.72;99582.34;4484731;31;34589;-82
2021/08/26 01:48:16;;;;;;;8.90;5.25;;;;;;;13.40;62.36;99591.56;4475747;31;34282;-82
2021/08/26 01:50:45;;;;;;;8.63;5.05;;;;;;;13.37;62.42;99587.28;4481779;31;32148;-82
2021/08/26 01:53:17;;;;;;;9.38;4.37;;;;;;;13.36;62.56;99584.72;4466465;31;33418;-81
2021/08/26 01:55:45;;;;;;;9.13;4.57;;;;;;;13.33;62.68;99577.78;4473058;31;33100;-81
2021/08/26 01:58:13;;;;;;;9.38;5.37;;;;;;;13.26;62.47;99587.06;4489552;31;34108;-81
2021/08/26 02:00:45;;;;;;;10.32;4.85;;;;;;;13.23;62.58;99584.59;4486638;31;33882;-82
2021/08/26 02:03:18;;;;;;;8.82;5.10;;;;;;;13.39;62.15;99572.16;4472764;31;33354;-82
2021/08/26 02:05:46;;;;;;;10.70;5.57;;;;;;;13.10;63.63;99584.41;4480105;31;33666;-82
2021/08/26 02:08:14;;;;;;;8.57;4.93;;;;;;;12.87;64.29;99575.13;4487407;31;33668;-82
2021/08/26 02:10:41;;;;;;;11.55;5.18;;;;;;;13.19;63.14;99580.38;4473293;31;33808;-82
2021/08/26 02:13:09;;;;;;;8.13;4.25;;;;;;;13.13;63.10;99576.28;4482494;31;32715;-83
2021/08/26 02:15:36;;;;;;;11.35;5.40;;;;;;;13.18;63.01;99574.22;4476719;31;32861;-83
2021/08/26 02:18:04;;;;;;;9.05;4.68;;;;;;;12.96;64.15;99571.97;4491092;31;34929;-83
2021/08/26 02:20:32;;;;;;;11.95;4.85;;;;;;;13.21;63.29;99579.34;4493976;31;33654;-83
2021/08/26 02:23:00;;;;;;;13.38;4.57;;;;;;;13.17;63.05;99576.97;4466787;32;33091;-82
2021/08/26 02:25:27;;;;;;;10.75;5.15;;;;;;;13.18;62.89;99570.72;4494377;31;33432;-83
2021/08/26 02:27:55;;;;;;;11.48;4.87;;;;;;;13.28;62.46;99574.56;4482847;31;33693;-83
2021/08/26 02:30:23;;;;;;;11.88;5.30;;;;;;;13.17;62.74;99567.22;4476214;31;33016;-82
2021/08/26 02:32:51;;;;;;;12.25;5.53;;;;;;;13.12;63.33;99568.41;4486358;31;33446;-82
2021/08/26 02:35:18;;;;;;;11.52;4.97;;;;;;;13.08;63.17;99567.72;4498273;31;33520;-83
2021/08/26 02:37:46;;;;;;;11.82;4.68;;;;;;;13.19;62.66;99569.75;4482098;31;33773;-83
2021/08/26 02:40:14;;;;;;;10.52;5.10;;;;;;;13.10;63.09;99570.28;4473356;31;33784;-83
2021/08/26 02:42:42;;;;;;;8.48;4.68;;;;;;;13.08;63.05;99568.59;4487517;31;34217;-83
2021/08/26 02:45:10;;;;;;;8.77;4.57;;;;;;;13.08;63.16;99570.38;4487277;31;34014;-83
2021/08/26 02:47:40;;;;;;;7.68;3.92;;;;;;;13.04;63.33;99567.06;4483583;31;35092;-83
2021/08/26 02:50:08;;;;;;;8.38;4.80;;;;;;;13.00;63.89;99570.81;4476288;31;34140;-83
2021/08/26 02:53:33;;;;;;;;;;;;;;;;;;;;;
2021/08/26 02:56:58;;;;;;;12.05;5.47;;;;;;;12.92;64.25;99567.78;4476662;31;33733;-83
2021/08/26 02:59:26;;;;;;;12.10;4.47;;;;;;;13.11;63.38;99566.72;4476201;31;33974;-83
2021/08/26 03:01:54;;;;;;;7.15;4.20;;;;;;;12.91;63.90;99566.03;4486092;31;33849;-83
2021/08/26 03:04:21;;;;;;;8.00;4.50;;;;;;;12.93;64.02;99573.91;4468887;32;32441;-83
2021/08/26 03:06:49;;;;;;;11.23;5.62;;;;;;;13.06;63.34;99569.63;4471378;31;33226;-83
2021/08/26 03:09:17;;;;;;;8.75;4.32;;;;;;;13.07;63.10;99566.87;4473583;31;33198;-81
2021/08/26 03:11:44;;;;;;;8.65;4.05;;;;;;;13.20;62.49;99572.34;4465132;31;33855;-83
2021/08/26 03:14:12;;;;;;;11.65;5.25;;;;;;;13.13;62.54;99565.66;4489741;31;33356;-82
2021/08/26 03:16:40;;;;;;;12.60;5.12;;;;;;;13.18;62.61;99568.06;4479048;31;33438;-82
2021/08/26 03:19:07;;;;;;;8.57;4.45;;;;;;;13.00;63.44;99565.50;4491802;31;34100;-82
2021/08/26 03:21:35;;;;;;;8.00;4.60;;;;;;;13.11;63.12;99564.06;4457337;32;33709;-81
2021/08/26 03:24:04;;;;;;;6.72;4.03;;;;;;;13.06;63.11;99562.53;4474736;31;32833;-82
2021/08/26 03:26:32;;;;;;;9.88;5.15;;;;;;;13.02;63.26;99566.28;4473488;31;33600;-82
2021/08/26 03:28:59;;;;;;;12.43;4.40;;;;;;;13.03;63.20;99575.94;4480507;31;33640;-81
2021/08/26 03:31:27;;;;;;;8.18;4.53;;;;;;;13.20;62.62;99561.75;4479903;31;33417;-82
2021/08/26 03:33:55;;;;;;;10.68;5.68;;;;;;;13.16;62.50;99559.34;4467448;31;34379;-82
2021/08/26 03:36:26;;;;;;;8.07;4.62;;;;;;;13.25;62.02;99558.84;4466398;31;32827;-83
2021/08/26 03:38:55;;;;;;;10.07;5.40;;;;;;;13.10;62.62;99554.38;4467085;31;33532;-82
2021/08/26 03:41:22;;;;;;;6.72;4.18;;;;;;;13.12;62.55;99558.66;4491691;31;33636;-82
2021/08/26 03:43:51;;;;;;;9.68;4.65;;;;;;;13.20;62.31;99560.88;4477322;31;34383;-83
2021/08/26 03:46:18;;;;;;;8.98;4.75;;;;;;;13.14;62.49;99550.63;4479419;31;34043;-83
2021/08/26 03:48:46;;;;;;;8.88;4.62;;;;;;;13.15;62.60;99555.84;4464624;31;34492;-83
2021/08/26 03:51:14;;;;;;;11.50;4.68;;;;;;;13.14;62.89;99555.91;4487922;31;33748;-84
2021/08/26 03:53:42;;;;;;;6.20;3.95;;;;;;;13.12;62.84;99549.88;4485855;31;33508;-83
2021/08/26 03:56:09;;;;;;;5.87;3.90;;;;;;;12.82;64.28;99548.88;4469460;31;33248;-83
2021/08/26 03:58:37;;;;;;;12.80;5.00;;;;;;;12.92;63.67;99557.16;4471835;31;34846;-83
2021/08/26 04:01:06;;;;;;;8.52;4.43;;;;;;;12.95;63.54;99546.38;4469989;31;33746;-83
2021/08/26 04:03:34;;;;;;;9.73;4.87;;;;;;;12.88;63.62;99539.72;4465347;31;32545;-83
2021/08/26 04:06:02;;;;;;;11.07;4.22;;;;;;;13.00;63.21;99541.66;4462735;31;33574;-83
2021/08/26 04:08:29;;;;;;;9.05;4.55;;;;;;;12.95;63.31;99533.12;4477298;31;34068;-83
2021/08/26 04:10:57;;;;;;;11.73;4.55;;;;;;;12.83;63.79;99531.19;4484880;31;33967;-82
2021/08/26 04:13:25;;;;;;;10.48;5.22;;;;;;;12.91;63.51;99534.25;4472414;31;33229;-83
2021/08/26 04:15:52;;;;;;;8.75;4.72;;;;;;;13.10;63.01;99527.87;4463962;31;32780;-82
2021/08/26 04:18:20;;;;;;;10.30;4.93;;;;;;;13.00;63.38;99525.75;4468008;31;33404;-82
2021/08/26 04:20:48;;;;;;;16.45;5.18;;;;;;;13.12;62.97;99515.41;4484764;31;34172;-82
2021/08/26 04:23:16;;;;;;;8.13;4.05;;;;;;;13.15;63.08;99517.84;4475562;32;33384;-82
2021/08/26 04:25:43;;;;;;;9.60;4.80;;;;;;;13.02;63.76;99515.94;4472656;31;32839;-83
2021/08/26 04:28:11;;;;;;;9.68;4.28;;;;;;;12.97;64.23;99522.47;4464585;32;33604;-82
2021/08/26 04:30:39;;;;;;;12.10;5.32;;;;;;;13.07;63.98;99519.16;4466026;32;33790;-83
2021/08/26 04:33:07;;;;;;;11.75;5.20;;;;;;;13.07;64.10;99519.16;4473038;31;33190;-83
2021/08/26 04:35:37;;;;;;;10.85;4.30;;;;;;;13.25;63.82;99521.72;4471537;31;33120;-83
2021/08/26 04:38:06;;;;;;;11.10;4.62;;;;;;;13.25;64.23;99521.72;4470579;31;34886;-83
2021/08/26 04:40:35;;;;;;;10.18;4.87;;;;;;;13.29;64.14;99518.81;4490476;31;34488;-83
2021/08/26 04:43:08;;;;;;;10.95;4.55;;;;;;;13.35;64.24;99517.59;4487051;31;33585;-83
2021/08/26 04:45:36;;;;;;;11.25;4.72;;;;;;;13.31;64.36;99518.72;4473499;31;33729;-82
2021/08/26 04:48:04;;;;;;;16.05;5.93;;;;;;;13.42;64.20;99518.91;4485234;31;35025;-82
2021/08/26 04:50:32;;;;;;;7.12;4.28;;;;;;;13.37;65.09;99509.53;4456311;31;33101;-83
2021/08/26 04:52:59;;;;;;;9.98;5.05;;;;;;;13.51;64.40;99506.91;4471679;31;32522;-82
2021/08/26 04:55:27;;;;;;;12.20;5.07;;;;;;;13.51;64.56;99505.09;4474599;31;32919;-82
2021/08/26 04:57:55;;;;;;;12.02;5.35;;;;;;;13.62;64.53;99503.59;4479709;31;33327;-82
2021/08/26 05:00:23;;;;;;;9.77;4.90;;;;;;;13.69;64.27;99494.31;4458598;32;33672;-82
2021/08/26 05:02:51;;;;;;;8.55;5.20;;;;;;;13.85;63.77;99495.06;4474624;31;33084;-82
2021/08/26 05:05:18;;;;;;;14.77;5.60;;;;;;;13.90;63.98;99492.13;4463524;31;33239;-82
2021/08/26 05:07:46;;;;;;;12.45;5.00;;;;;;;14.03;64.04;99487.78;4478722;31;34849;-82
2021/08/26 05:10:14;;;;;;;10.32;5.25;;;;;;;14.17;63.90;99484.25;4490739;31;33441;-82
2021/08/26 05:12:41;;;;;;;14.23;4.95;;;;;;;14.34;64.19;99484.88;4485709;31;33840;-81
2021/08/26 05:15:10;;;;;;;14.38;5.28;;;;;;;14.79;62.52;99477.53;4476818;31;33505;-82
2021/08/26 05:17:37;;;;;;;12.77;4.82;;;;;;;14.82;62.72;99471.19;4476136;31;33984;-83
2021/08/26 05:20:06;;;;;;;11.18;5.10;;;;;;;14.74;63.55;99481.47;4482520;31;35019;-82
2021/08/26 05:22:33;;;;;;;12.68;4.40;;;;;;;14.95;62.15;99474.69;4468303;31;32360;-82
2021/08/26 05:25:01;;;;;;;8.00;4.40;;;;;;;15.06;62.06;99469.53;4487846;31;33837;-82
2021/08/26 05:27:28;;;;;;;13.30;5.30;;;;;;;15.06;63.79;99471.34;4478485;31;33877;-81
2021/08/26 05:29:57;;;;;;;11.38;5.85;;;;;;;15.23;63.53;99470.19;4476962;31;36125;-81
2021/08/26 05:32:24;;;;;;;8.90;4.22;;;;;;;15.49;62.80;99469.25;4477151;31;34111;-81
2021/08/26 05:34:52;;;;;;;7.10;4.00;;;;;;;15.57;61.85;99458.94;4482946;31;34127;-81
2021/08/26 05:37:20;;;;;;;5.70;3.75;;;;;;;15.73;61.40;99458.75;4480799;31;33607;-81
2021/08/26 05:39:47;;;;;;;9.88;4.15;;;;;;;15.91;60.62;99458.41;4467654;32;33976;-82
2021/08/26 05:42:15;;;;;;;7.40;3.67;;;;;;;16.26;59.78;99459.37;4486677;31;34329;-81
2021/08/26 05:44:43;;;;;;;8.18;3.53;;;;;;;16.39;58.94;99459.34;4484729;31;32790;-81
2021/08/26 05:47:10;;;;;;;7.97;3.30;;;;;;;16.50;58.86;99451.41;4477898;31;34270;-82
2021/08/26 05:49:38;;;;;;;7.03;3.20;;;;;;;16.82;57.91;99453.53;4493754;31;33925;-82
2021/08/26 05:52:06;;;;;;;5.22;2.95;;;;;;;16.86;57.80;99455.00;4483364;31;33150;-83
2021/08/26 05:54:34;;;;;;;7.87;3.87;;;;;;;17.23;56.87;99449.53;4486582;31;34296;-83
2021/08/26 05:57:03;;;;;;;10.70;3.50;;;;;;;17.35;56.67;99459.28;4484764;31;33524;-83
2021/08/26 05:59:31;;;;;;;7.03;3.03;;;;;;;17.49;55.58;99459.06;4454285;31;34219;-83
2021/08/26 06:02:02;;;;;;;;;;;;;;;17.60;54.92;99453.72;4471144;32;32936;-81
2021/08/26 06:04:30;;;;;;;;;;;;;;;17.62;54.42;99457.12;4480006;31;33844;-82
2021/08/26 06:06:58;;;;;;;7.25;3.33;;;;;;;17.72;55.73;99453.75;4471150;32;33933;-82
2021/08/26 06:09:29;;;;;;;5.43;3.03;;;;;;;17.95;53.83;99458.16;4471329;31;34014;-83
2021/08/26 06:11:57;;;;;;;7.20;3.15;;;;;;;18.06;53.25;99457.28;4480152;31;33792;-82
2021/08/26 06:14:37;;;;;;;6.30;3.15;;;;;;;18.27;53.45;99460.87;4486017;31;32746;-82
2021/08/26 06:17:05;;;;;;;6.20;3.12;;;;;;;18.06;52.68;99459.97;4470790;31;33689;-83
2021/08/26 06:19:32;;;;;;;8.02;3.25;;;;;;;18.62;51.88;99459.84;4482613;31;34257;-81
2021/08/26 06:22:00;;;;;;;8.10;3.47;;;;;;;18.74;51.24;99464.19;4480601;31;33962;-81
2021/08/26 06:24:28;;;;;;;8.57;3.42;;;;;;;19.06;50.93;99464.19;4486554;31;33930;-83
2021/08/26 06:26:58;;;;;;;6.80;2.75;;;;;;;18.85;51.51;99461.50;4484586;31;33976;-83
2021/08/26 06:29:26;;;;;;;7.37;3.12;;;;;;;19.07;51.50;99463.22;4461815;32;32967;-82
2021/08/26 06:31:53;;;;;;;8.98;2.70;;;;;;;19.28;50.30;99457.03;4480521;31;32134;-82
2021/08/26 06:34:21;;;;;;;5.43;2.87;;;;;;;19.18;49.69;99452.47;4466387;32;34925;-82
2021/08/26 06:36:49;;;;;;;6.72;2.50;;;;;;;19.22;50.13;99457.53;4472493;31;34565;-83
2021/08/26 06:39:16;;;;;;;7.43;3.25;;;;;;;19.65;48.90;99455.62;4475595;31;33638;-83
2021/08/26 06:41:44;;;;;;;5.47;3.08;;;;;;;19.86;49.21;99455.56;4476464;31;34171;-84
2021/08/26 06:44:11;;;;;;;8.32;3.50;;;;;;;19.86;47.85;99463.59;4475271;31;33705;-84
2021/08/26 06:46:39;;;;;;;7.07;3.28;;;;;;;19.72;47.94;99465.78;4459623;31;33494;-85
2021/08/26 06:49:07;;;;;;;9.13;3.37;;;;;;;20.03;48.59;99469.28;4494759;31;33966;-83
2021/08/26 06:51:34;;;;;;;5.97;2.90;;;;;;;20.14;47.28;99463.84;4473512;31;34164;-83
2021/08/26 06:54:02;;;;;;;6.20;2.72;;;;;;;20.09;47.51;99472.28;4483141;31;34593;-83
2021/08/26 06:56:30;;;;;;;6.18;2.55;;;;;;;20.27;46.74;99472.50;4472111;31;34002;-83
2021/08/26 06:58:57;;;;;;;7.25;2.95;;;;;;;19.98;46.91;99456.28;4486105;31;33997;-83
2021/08/26 07:01:25;;;;;;;6.47;2.67;;;;;;;20.37;46.85;99456.44;4481133;31;32622;-83
2021/08/26 07:04:00;;;;;;;3.60;2.17;;;;;;;20.54;46.37;99446.88;4474799;31;33662;-83
2021/08/26 07:06:28;;;;;;;6.53;2.97;;;;;;;20.45;47.49;99448.53;4476550;31;33886;-83
2021/08/26 07:08:56;;;;;;;7.53;3.72;;;;;;;20.52;46.04;99454.25;4474448;32;33568;-83
2021/08/26 07:11:24;;;;;;;5.80;3.15;;;;;;;21.00;45.54;99446.22;4481312;31;34103;-82
2021/08/26 07:13:52;;;;;;;7.72;2.90;;;;;;;21.14;44.77;99439.56;4477127;32;33749;-83
2021/08/26 07:16:19;;;;;;;4.55;2.30;;;;;;;21.07;45.97;99446.47;4480029;31;33889;-83
2021/08/26 07:18:47;;;;;;;8.27;3.35;;;;;;;21.11;45.62;99451.41;4470983;31;33495;-83
2021/08/26 07:21:14;;;;;;;7.62;2.95;;;;;;;21.26;44.56;99445.59;4462315;31;32301;-83
2021/08/26 07:23:42;;;;;;;6.70;2.83;;;;;;;21.24;44.15;99445.75;4478506;31;33097;-83
2021/08/26 07:26:09;;;;;;;7.87;3.37;;;;;;;21.60;44.16;99446.84;4486791;31;34022;-83
2021/08/26 07:28:37;;;;;;;8.15;3.42;;;;;;;21.30;43.47;99442.50;4465016;32;32833;-83
2021/08/26 07:31:05;;;;;;;10.18;4.18;;;;;;;21.72;43.60;99437.59;4476128;31;33042;-82
2021/08/26 07:33:32;;;;;;;5.60;2.70;;;;;;;21.72;43.66;99437.59;4462484;31;34595;-82
2021/08/26 07:36:02;;;;;;;7.37;2.92;;;;;;;21.84;43.34;99434.72;4487909;31;34006;-82
2021/08/26 07:38:30;;;;;;;9.15;3.15;;;;;;;21.91;43.80;99433.16;4474456;31;33823;-82
2021/08/26 07:40:58;;;;;;;5.40;3.22;;;;;;;21.63;43.54;99430.41;4485335;31;33214;-83
2021/08/26 07:43:30;;;;;;;7.15;2.70;;;;;;;22.34;43.75;99431.69;4468382;32;34281;-82
2021/08/26 07:45:58;;;;;;;7.80;3.75;;;;;;;22.54;45.66;99433.22;4484006;31;35312;-83
2021/08/26 07:48:26;;;;;;;6.65;3.17;;;;;;;23.06;42.38;99425.34;4481682;31;34624;-83
2021/08/26 07:50:56;;;;;;;7.25;3.28;;;;;;;23.07;41.90;99420.78;4473798;31;33061;-83
2021/08/26 07:53:24;;;;;;;4.82;3.00;;;;;;;23.00;41.82;99425.97;4483062;31;34010;-83
2021/08/26 07:55:52;;;;;;;9.35;3.28;;;;;;;22.49;41.56;99422.94;4473232;31;35108;-83
2021/08/26 07:58:20;;;;;;;5.68;2.78;;;;;;;22.94;42.19;99415.84;4472670;32;35737;-83
2021/08/26 08:00:47;;;;;;;5.55;2.80;;;;;;;22.74;41.16;99415.97;4464449;32;32673;-83
2021/08/26 08:03:15;;;;;;;4.20;2.58;;;;;;;23.21;41.88;99413.00;4483666;31;33989;-83
2021/08/26 08:05:43;;;;;;;7.18;3.03;;;;;;;23.20;41.66;99414.00;4455737;31;33468;-83
2021/08/26 08:08:10;;;;;;;5.10;2.50;;;;;;;23.38;38.92;99407.72;4465762;31;33347;-83
2021/08/26 08:10:38;;;;;;;4.43;2.55;;;;;;;23.48;39.92;99411.16;4471184;31;32234;-83
2021/08/26 08:13:05;;;;;;;5.80;3.03;;;;;;;23.34;39.95;99406.34;4470453;31;33472;-84
2021/08/26 08:15:33;;;;;;;7.35;2.53;;;;;;;23.49;39.65;99410.16;4464596;31;34072;-83
2021/08/26 08:18:01;;;;;;;8.30;3.05;;;;;;;22.93;38.97;99412.28;4482467;31;34014;-85
2021/08/26 08:20:28;;;;;;;5.00;2.55;;;;;;;23.39;38.74;99409.41;4477308;31;32991;-83
2021/08/26 08:22:57;;;;;;;4.78;2.92;;;;;;;23.64;39.77;99407.75;4467004;31;32874;-83
2021/08/26 08:25:24;;;;;;;6.72;2.62;;;;;;;23.56;38.50;99405.84;4487874;31;33309;-83
2021/08/26 08:27:52;;;;;;;6.97;3.35;;;;;;;23.82;39.10;99404.97;4469939;31;33750;-83
2021/08/26 08:30:26;;;;;;;3.62;2.28;;;;;;;23.61;40.83;99408.88;4488661;31;33921;-84
2021/08/26 08:32:54;;;;;;;4.20;2.65;;;;;;;23.58;40.02;99403.81;4464499;32;32799;-83
2021/08/26 08:35:23;;;;;;;4.00;2.15;;;;;;;23.87;38.20;99408.03;4483837;31;34466;-84
2021/08/26 08:37:51;;;;;;;4.30;2.20;;;;;;;24.44;37.56;99410.94;4469349;31;33743;-82
2021/08/26 08:40:19;;;;;;;7.50;2.53;;;;;;;24.59;37.45;99403.03;4480206;31;33056;-82
2021/08/26 08:42:46;;;;;;;4.70;2.25;;;;;;;23.52;37.98;99396.38;4469063;31;34740;-82
2021/08/26 08:45:14;;;;;;;4.90;2.55;;;;;;;23.81;40.59;99403.28;4467706;31;33085;-82
2021/08/26 08:47:42;;;;;;;5.65;2.67;;;;;;;23.82;38.35;99394.19;4468815;31;32785;-82
2021/08/26 08:50:10;;;;;;;5.53;2.28;;;;;;;24.37;37.29;99391.87;4484502;31;33598;-82
2021/08/26 08:52:39;;;;;;;4.62;2.70;;;;;;;23.60;37.17;99395.59;4472848;31;34516;-83
2021/08/26 08:55:11;;;;;;;5.12;2.78;;;;;;;23.79;37.75;99394.53;4465823;31;34062;-82
2021/08/26 08:57:43;;;;;;;3.80;1.90;;;;;;;24.04;39.58;99390.91;4472288;31;33842;-83
2021/08/26 09:00:17;;;;;;;6.37;2.33;;;;;;;24.50;37.78;99386.03;4484066;31;32919;-82
2021/08/26 09:02:45;;;;;;;4.78;2.78;;;;;;;24.36;37.81;99381.25;4474815;31;34216;-82
2021/08/26 09:05:16;;;;;;;4.72;2.28;;;;;;;24.66;39.88;99383.31;4470123;31;34222;-82
2021/08/26 09:08:11;;;;;;;3.95;2.67;;;;;;;25.11;38.94;99376.59;4479075;31;33495;-85
2021/08/26 09:10:39;;;;;;;4.22;2.22;;;;;;;25.33;36.38;99368.81;4471557;31;32599;-84
2021/08/26 09:13:09;;;;;;;4.62;2.45;;;;;;;25.63;35.97;99370.72;4473493;32;33242;-84
2021/08/26 09:15:44;;;;;;;3.70;2.60;;;;;;;25.68;36.48;99357.53;4486062;31;34014;-84
2021/08/26 09:18:17;;;;;;;5.15;2.67;;;;;;;25.55;36.36;99368.06;4469313;31;34628;-84
2021/08/26 09:21:05;;;;;;;5.55;2.97;;;;;;;25.68;34.52;99357.53;4486475;31;34493;-84
2021/08/26 09:23:50;;;;;;;2.28;1.70;;;;;;;25.57;33.00;99371.44;4467786;31;34006;-84
2021/08/26 09:26:26;;;;;;;4.05;2.00;;;;;;;25.21;33.28;99371.88;4483209;31;33729;-84
2021/08/26 09:29:00;;;;;;;5.65;2.95;;;;;;;25.28;33.97;99364.75;4478917;31;33227;-84
2021/08/26 09:31:29;;;;;;;7.00;2.87;;;;;;;25.18;33.62;99372.19;4490085;31;33178;-85
2021/08/26 09:34:02;;;;;;;4.60;2.62;;;;;;;25.10;35.58;99377.59;4463019;32;32623;-84
2021/08/26 09:36:57;;;;;;;5.62;2.78;;;;;;;25.17;35.25;99367.81;4470244;31;34185;-84
2021/08/26 09:39:29;;;;;;;4.90;2.42;;;;;;;25.67;34.36;99361.25;4480763;31;33724;-84
2021/08/26 09:42:02;;;;;;;4.53;2.40;;;;;;;25.79;34.13;99357.19;4483328;31;34142;-84
2021/08/26 09:44:39;;;;;;;3.22;2.05;;;;;;;25.84;32.28;99355.84;4450018;31;33893;-84
2021/08/26 09:47:09;;;;;;;7.78;2.33;;;;;;;25.79;32.75;99367.19;4481482;31;34691;-84
2021/08/26 09:49:39;;;;;;;5.55;2.67;;;;;;;25.57;33.46;99360.63;4477643;31;33217;-84
2021/08/26 09:52:12;;;;;;;9.25;2.62;;;;;;;25.22;34.44;99362.75;4475175;31;33539;-84
2021/08/26 09:54:45;;;;;;;3.58;2.12;;;;;;;25.26;34.37;99361.37;4481775;31;33983;-84
2021/08/26 09:57:27;;;;;;;6.65;2.40;;;;;;;25.45;33.67;99360.16;4487421;31;34994;-84
2021/08/26 09:59:56;;;;;;;;;;;;;;;25.57;34.91;99359.78;4488229;31;33797;-84
2021/08/26 10:02:26;;;;;;;7.90;2.33;;;;;;;25.33;34.56;99360.69;4470442;31;34047;-84
2021/08/26 10:04:55;;;;;;;4.22;1.83;;;;;;;25.57;35.26;99351.66;4483536;31;34377;-84
2021/08/26 10:07:27;;;;;;;4.72;2.15;;;;;;;25.76;34.42;99349.44;4470520;31;34418;-84
2021/08/26 10:09:56;;;;;;;4.72;2.28;;;;;;;25.32;33.50;99348.19;4484387;31;33477;-85
2021/08/26 10:12:24;;;;;;;5.07;2.25;;;;;;;25.37;33.30;99351.22;4464119;31;33336;-84
2021/08/26 10:14:52;;;;;;;4.68;2.45;;;;;;;25.58;34.74;99347.94;4472229;31;34272;-84
2021/08/26 10:17:21;;;;;;;4.57;2.22;;;;;;;25.60;35.70;99344.06;4485608;31;32865;-84
2021/08/26 10:19:49;;;;;;;5.05;2.60;;;;;;;25.67;35.49;99339.63;4474206;31;33548;-84
2021/08/26 10:22:17;;;;;;;3.65;2.17;;;;;;;25.65;33.86;99336.28;4456456;31;32384;-84
2021/08/26 10:24:45;;;;;;;4.57;2.47;;;;;;;25.98;32.82;99341.56;4486523;31;34322;-84
2021/08/26 10:27:15;;;;;;;5.80;2.15;;;;;;;25.78;32.20;99338.47;4475817;31;33640;-84
2021/08/26 10:29:47;;;;;;;4.70;2.28;;;;;;;25.93;32.42;99336.69;4467026;32;33810;-84
2021/08/26 10:32:24;;;;;;;4.07;2.25;;;;;;;26.40;33.27;99335.72;4486100;31;33214;-84
2021/08/26 10:35:06;;;;;;;3.58;2.03;;;;;;;26.24;33.13;99333.13;4484527;31;34192;-84
2021/08/26 10:37:56;;;;;;;3.47;2.10;;;;;;;26.13;31.66;99339.78;4465797;32;34209;-84
2021/08/26 10:40:36;;;;;;;4.20;2.45;;;;;;;25.78;30.76;99336.59;4473073;31;33882;-85
2021/08/26 10:43:06;;;;;;;5.50;2.67;;;;;;;26.10;33.08;99332.00;4486546;31;33569;-85
2021/08/26 10:45:51;;;;;;;4.22;2.15;;;;;;;25.96;33.74;99327.34;4479432;31;33929;-84
2021/08/26 10:48:21;;;;;;;5.80;2.10;;;;;;;26.33;30.76;99325.78;4474416;31;34724;-85
2021/08/26 10:51:02;;;;;;;3.47;2.10;;;;;;;26.28;32.77;99329.87;4473358;31;34613;-84
2021/08/26 10:53:32;;;;;;;3.53;2.03;;;;;;;25.81;34.20;99334.53;4488308;31;33382;-84
2021/08/26 10:56:23;;;;;;;6.57;2.70;;;;;;;26.19;32.93;99336.34;4472725;31;32785;-84
2021/08/26 10:58:58;;;;;;;5.95;2.03;;;;;;;26.18;33.24;99331.97;4479580;31;33633;-85
2021/08/26 11:01:42;;;;;;;6.60;2.60;;;;;;;26.30;32.86;99327.84;4468427;32;33803;-84
2021/08/26 11:04:20;;;;;;;4.97;2.05;;;;;;;26.48;29.89;99324.84;4474819;31;33469;-84
2021/08/26 11:06:48;;;;;;;3.37;1.95;;;;;;;25.87;31.32;99328.41;4491712;31;33923;-84
2021/08/26 11:09:17;;;;;;;4.97;2.53;;;;;;;25.93;31.74;99323.16;4463972;32;33794;-84
2021/08/26 11:11:47;;;;;;;3.25;2.00;;;;;;;26.25;31.38;99322.13;4488068;31;33777;-85
2021/08/26 11:14:20;;;;;;;4.82;2.55;;;;;;;26.09;33.98;99316.81;4483208;31;33457;-85
2021/08/26 11:16:52;;;;;;;5.07;2.67;;;;;;;26.10;32.44;99315.78;4489592;31;33892;-85
2021/08/26 11:19:20;;;;;;;5.05;1.98;;;;;;;26.06;31.47;99317.16;4459917;31;34543;-86
2021/08/26 11:21:48;;;;;;;4.75;2.47;;;;;;;26.02;30.51;99327.50;4490779;31;34971;-86
2021/08/26 11:24:15;;;;;;;4.32;2.33;;;;;;;26.55;29.75;99316.88;4485408;31;33566;-86
2021/08/26 11:26:48;;;;;;;3.72;1.87;;;;;;;26.33;32.16;99328.50;4485091;31;33690;-86
2021/08/26 11:29:22;;;;;;;5.03;2.35;;;;;;;25.87;30.83;99317.59;4482466;31;221322;-86
2021/08/26 11:32:00;;;;;;;3.97;1.80;;;;;;;26.02;31.38;99322.09;4486401;31;33242;-86
2021/08/26 11:34:35;;;;;;;3.97;2.40;;;;;;;25.31;30.16;99314.94;4492997;31;33392;-85
2021/08/26 11:37:24;;;;;;;3.70;2.30;;;;;;;25.95;32.03;99314.84;4465418;32;33569;-85
2021/08/26 11:40:13;;;;;;;4.22;1.95;;;;;;;26.26;30.48;99317.56;4487385;31;33673;-85
2021/08/26 11:42:42;;;;;;;5.25;2.33;;;;;;;26.12;30.27;99316.47;4463350;32;33345;-85
2021/08/26 11:45:25;;;;;;;3.47;2.28;;;;;;;26.17;29.98;99319.47;4470377;31;32586;-86
2021/08/26 11:48:00;;;;;;;5.37;2.67;;;;;;;26.03;31.21;99321.06;4470505;31;33205;-85
2021/08/26 11:50:30;;;;;;;6.47;3.20;;;;;;;25.53;31.64;99319.56;4479014;31;35201;-85
2021/08/26 11:53:07;;;;;;;5.55;2.40;;;;;;;25.77;32.46;99310.53;4488246;31;33547;-85
2021/08/26 11:55:37;;;;;;;4.47;2.30;;;;;;;25.78;31.70;99309.53;4492131;31;32777;-85